sensor_id;sensor_type;location;lat;lon;timestamp;pressure;altitude;pressure_sealevel;temperature;humidity
75039;BME280;63609;49.992;14.512;2022-11-15T00:00:42;98132.34;;;4.74;65.62
75039;BME280;63609;49.992;14.512;2022-11-15T00:03:27;98133.84;;;4.78;65.29
75039;BME280;63609;49.992;14.512;2022-11-15T00:06:13;98131.06;;;4.40;65.74
75039;BME280;63609;49.992;14.512;2022-11-15T00:08:59;98131.81;;;4.28;66.59
75039;BME280;63609;49.992;14.512;2022-11-15T00:11:45;98134.50;;;3.99;68.37
75039;BME280;63609;49.992;14.512;2022-11-15T00:14:30;98134.25;;;4.31;66.57
75039;BME280;63609;49.992;14.512;2022-11-15T00:17:16;98133.00;;;4.10;67.48
75039;BME280;63609;49.992;14.512;2022-11-15T00:20:02;98120.44;;;4.27;66.46
75039;BME280;63609;49.992;14.512;2022-11-15T00:22:48;98126.47;;;4.29;65.54
75039;BME280;63609;49.992;14.512;2022-11-15T00:25:33;98121.94;;;4.31;65.86
75039;BME280;63609;49.992;14.512;2022-11-15T00:28:18;98130.03;;;4.28;65.54
75039;BME280;63609;49.992;14.512;2022-11-15T00:31:06;98129.47;;;4.38;64.50
75039;BME280;63609;49.992;14.512;2022-11-15T00:33:52;98121.38;;;4.41;64.70
75039;BME280;63609;49.992;14.512;2022-11-15T00:36:37;98127.44;;;4.14;65.45
75039;BME280;63609;49.992;14.512;2022-11-15T00:39:22;98123.38;;;4.23;65.16
75039;BME280;63609;49.992;14.512;2022-11-15T00:42:07;98114.69;;;3.94;64.29
75039;BME280;63609;49.992;14.512;2022-11-15T00:44:53;98130.13;;;3.86;65.10
75039;BME280;63609;49.992;14.512;2022-11-15T00:47:38;98121.00;;;3.77;65.95
75039;BME280;63609;49.992;14.512;2022-11-15T00:50:24;98127.69;;;3.83;65.39
75039;BME280;63609;49.992;14.512;2022-11-15T00:53:09;98112.16;;;3.92;65.69
75039;BME280;63609;49.992;14.512;2022-11-15T00:55:55;98132.03;;;3.69;67.74
75039;BME280;63609;49.992;14.512;2022-11-15T00:58:40;98118.94;;;3.82;69.35
75039;BME280;63609;49.992;14.512;2022-11-15T01:01:25;98121.69;;;4.22;67.45
75039;BME280;63609;49.992;14.512;2022-11-15T01:04:11;98111.22;;;4.34;66.21
75039;BME280;63609;49.992;14.512;2022-11-15T01:06:56;98106.13;;;4.31;67.42
75039;BME280;63609;49.992;14.512;2022-11-15T01:09:42;98102.56;;;3.91;69.29
75039;BME280;63609;49.992;14.512;2022-11-15T01:12:27;98099.38;;;4.27;67.14
75039;BME280;63609;49.992;14.512;2022-11-15T01:15:13;98105.28;;;4.04;68.30
75039;BME280;63609;49.992;14.512;2022-11-15T01:17:58;98088.06;;;4.13;68.43
75039;BME280;63609;49.992;14.512;2022-11-15T01:20:44;98090.44;;;3.89;69.87
75039;BME280;63609;49.992;14.512;2022-11-15T01:23:30;98092.22;;;4.02;69.04
75039;BME280;63609;49.992;14.512;2022-11-15T01:26:15;98092.56;;;4.11;68.15
75039;BME280;63609;49.992;14.512;2022-11-15T01:29:01;98095.50;;;3.35;71.51
75039;BME280;63609;49.992;14.512;2022-11-15T01:31:46;98093.31;;;3.98;68.35
75039;BME280;63609;49.992;14.512;2022-11-15T01:34:32;98083.09;;;3.94;67.80
75039;BME280;63609;49.992;14.512;2022-11-15T01:37:17;98090.47;;;3.60;69.51
75039;BME280;63609;49.992;14.512;2022-11-15T01:40:03;98087.44;;;3.81;68.79
75039;BME280;63609;49.992;14.512;2022-11-15T01:42:50;98095.34;;;3.38;71.75
75039;BME280;63609;49.992;14.512;2022-11-15T01:45:35;98089.59;;;3.17;72.24
75039;BME280;63609;49.992;14.512;2022-11-15T01:48:22;98094.94;;;3.30;72.13
75039;BME280;63609;49.992;14.512;2022-11-15T01:51:12;98073.03;;;4.00;69.29
75039;BME280;63609;49.992;14.512;2022-11-15T01:54:04;98083.03;;;4.22;68.35
75039;BME280;63609;49.992;14.512;2022-11-15T01:56:53;98078.94;;;4.31;66.99
75039;BME280;63609;49.992;14.512;2022-11-15T01:59:43;98077.44;;;4.54;66.76
75039;BME280;63609;49.992;14.512;2022-11-15T02:02:30;98086.19;;;4.42;67.57
75039;BME280;63609;49.992;14.512;2022-11-15T02:05:16;98091.66;;;4.39;68.39
75039;BME280;63609;49.992;14.512;2022-11-15T02:08:01;98089.09;;;4.37;68.16
75039;BME280;63609;49.992;14.512;2022-11-15T02:10:46;98082.00;;;4.64;67.23
75039;BME280;63609;49.992;14.512;2022-11-15T02:13:32;98087.22;;;4.79;67.06
75039;BME280;63609;49.992;14.512;2022-11-15T02:25:39;98092.50;;;4.25;71.16
75039;BME280;63609;49.992;14.512;2022-11-15T02:29:02;98086.06;;;3.47;73.77
75039;BME280;63609;49.992;14.512;2022-11-15T02:35:21;98089.13;;;4.23;70.74
75039;BME280;63609;49.992;14.512;2022-11-15T02:41:11;98082.81;;;4.79;68.54
75039;BME280;63609;49.992;14.512;2022-11-15T02:44:08;98072.25;;;4.92;67.74
75039;BME280;63609;49.992;14.512;2022-11-15T02:46:57;98076.00;;;5.02;67.52
75039;BME280;63609;49.992;14.512;2022-11-15T02:50:04;98072.09;;;5.08;67.40
75039;BME280;63609;49.992;14.512;2022-11-15T02:52:52;98070.09;;;5.11;67.45
75039;BME280;63609;49.992;14.512;2022-11-15T02:55:41;98062.38;;;5.08;67.44
75039;BME280;63609;49.992;14.512;2022-11-15T03:01:21;98065.66;;;4.32;70.41
75039;BME280;63609;49.992;14.512;2022-11-15T03:04:23;98060.16;;;4.50;69.70
75039;BME280;63609;49.992;14.512;2022-11-15T03:07:14;98071.94;;;4.96;68.26
75039;BME280;63609;49.992;14.512;2022-11-15T03:10:08;98056.97;;;4.72;69.19
75039;BME280;63609;49.992;14.512;2022-11-15T03:12:57;98048.34;;;4.43;69.82
75039;BME280;63609;49.992;14.512;2022-11-15T03:16:03;98054.34;;;5.10;67.63
75039;BME280;63609;49.992;14.512;2022-11-15T03:18:55;98050.78;;;5.11;67.50
75039;BME280;63609;49.992;14.512;2022-11-15T03:21:42;98055.69;;;4.77;68.77
75039;BME280;63609;49.992;14.512;2022-11-15T03:24:30;98052.31;;;4.75;68.87
75039;BME280;63609;49.992;14.512;2022-11-15T03:27:21;98051.63;;;5.11;67.66
75039;BME280;63609;49.992;14.512;2022-11-15T03:30:08;98039.50;;;5.34;66.63
75039;BME280;63609;49.992;14.512;2022-11-15T03:32:56;98037.91;;;5.32;66.93
75039;BME280;63609;49.992;14.512;2022-11-15T03:35:44;98036.84;;;5.34;66.86
75039;BME280;63609;49.992;14.512;2022-11-15T03:38:32;98039.06;;;5.40;66.89
75039;BME280;63609;49.992;14.512;2022-11-15T03:41:43;98035.78;;;5.37;67.56
75039;BME280;63609;49.992;14.512;2022-11-15T03:47:43;98019.00;;;5.25;67.97
75039;BME280;63609;49.992;14.512;2022-11-15T03:50:29;98031.16;;;5.02;69.46
75039;BME280;63609;49.992;14.512;2022-11-15T03:53:15;98023.13;;;5.16;69.08
75039;BME280;63609;49.992;14.512;2022-11-15T03:56:00;98022.81;;;5.21;69.67
75039;BME280;63609;49.992;14.512;2022-11-15T03:58:46;98019.41;;;4.81;71.17
75039;BME280;63609;49.992;14.512;2022-11-15T04:01:31;98021.09;;;4.69;71.65
75039;BME280;63609;49.992;14.512;2022-11-15T04:04:19;98024.47;;;4.96;70.60
75039;BME280;63609;49.992;14.512;2022-11-15T04:07:05;98017.94;;;5.27;69.30
75039;BME280;63609;49.992;14.512;2022-11-15T04:09:51;98019.72;;;5.27;69.46
75039;BME280;63609;49.992;14.512;2022-11-15T04:12:49;98023.53;;;5.36;68.96
75039;BME280;63609;49.992;14.512;2022-11-15T04:15:35;98012.38;;;5.07;70.43
75039;BME280;63609;49.992;14.512;2022-11-15T04:18:20;98016.88;;;4.79;71.68
75039;BME280;63609;49.992;14.512;2022-11-15T04:21:06;98013.94;;;5.22;70.06
75039;BME280;63609;49.992;14.512;2022-11-15T04:24:11;98009.09;;;5.03;71.00
75039;BME280;63609;49.992;14.512;2022-11-15T04:27:00;98010.78;;;5.04;70.77
75039;BME280;63609;49.992;14.512;2022-11-15T04:29:47;98009.31;;;5.00;71.29
75039;BME280;63609;49.992;14.512;2022-11-15T04:32:33;98006.16;;;5.08;70.91
75039;BME280;63609;49.992;14.512;2022-11-15T04:35:18;98010.78;;;4.79;72.23
75039;BME280;63609;49.992;14.512;2022-11-15T04:38:06;98001.72;;;4.83;71.91
75039;BME280;63609;49.992;14.512;2022-11-15T04:40:51;98009.16;;;4.63;72.86
75039;BME280;63609;49.992;14.512;2022-11-15T04:43:37;98007.09;;;4.81;72.50
75039;BME280;63609;49.992;14.512;2022-11-15T04:46:23;98000.34;;;5.03;71.54
75039;BME280;63609;49.992;14.512;2022-11-15T04:49:09;98007.72;;;5.10;70.73
75039;BME280;63609;49.992;14.512;2022-11-15T04:51:54;98009.31;;;4.75;71.59
75039;BME280;63609;49.992;14.512;2022-11-15T04:54:40;98001.28;;;4.76;71.78
75039;BME280;63609;49.992;14.512;2022-11-15T04:57:27;98001.25;;;4.63;71.86
75039;BME280;63609;49.992;14.512;2022-11-15T05:00:14;98005.41;;;4.67;71.66
75039;BME280;63609;49.992;14.512;2022-11-15T05:03:00;97995.81;;;4.27;72.68
75039;BME280;63609;49.992;14.512;2022-11-15T05:06:04;98003.41;;;4.71;71.71
75039;BME280;63609;49.992;14.512;2022-11-15T05:08:50;97995.03;;;4.64;70.67
75039;BME280;63609;49.992;14.512;2022-11-15T05:11:36;98010.63;;;4.55;71.57
75039;BME280;63609;49.992;14.512;2022-11-15T05:14:21;98010.66;;;4.28;72.67
75039;BME280;63609;49.992;14.512;2022-11-15T05:17:07;98020.56;;;4.24;72.20
75039;BME280;63609;49.992;14.512;2022-11-15T05:19:52;98015.56;;;4.47;71.14
75039;BME280;63609;49.992;14.512;2022-11-15T05:22:38;98009.81;;;4.27;71.85
75039;BME280;63609;49.992;14.512;2022-11-15T05:25:23;98000.94;;;4.16;72.66
75039;BME280;63609;49.992;14.512;2022-11-15T05:28:09;97996.94;;;4.23;72.31
75039;BME280;63609;49.992;14.512;2022-11-15T05:31:01;97989.75;;;4.12;72.70
75039;BME280;63609;49.992;14.512;2022-11-15T05:33:48;97994.34;;;3.69;74.17
75039;BME280;63609;49.992;14.512;2022-11-15T05:36:52;97989.66;;;3.87;75.07
75039;BME280;63609;49.992;14.512;2022-11-15T05:39:37;97991.16;;;4.18;73.58
75039;BME280;63609;49.992;14.512;2022-11-15T05:42:22;97989.22;;;4.34;72.70
75039;BME280;63609;49.992;14.512;2022-11-15T05:45:09;97979.84;;;4.03;73.87
75039;BME280;63609;49.992;14.512;2022-11-15T05:47:56;97985.59;;;3.68;74.81
75039;BME280;63609;49.992;14.512;2022-11-15T05:50:46;97981.09;;;3.56;75.88
75039;BME280;63609;49.992;14.512;2022-11-15T05:53:32;97987.84;;;3.60;75.39
75039;BME280;63609;49.992;14.512;2022-11-15T05:56:18;97979.22;;;3.85;74.62
75039;BME280;63609;49.992;14.512;2022-11-15T05:59:08;97981.56;;;4.17;72.87
75039;BME280;63609;49.992;14.512;2022-11-15T06:01:54;97986.78;;;3.77;73.78
75039;BME280;63609;49.992;14.512;2022-11-15T06:04:39;97984.13;;;3.07;75.65
75039;BME280;63609;49.992;14.512;2022-11-15T06:07:26;97991.53;;;2.87;77.07
75039;BME280;63609;49.992;14.512;2022-11-15T06:10:11;97983.56;;;3.17;74.92
75039;BME280;63609;49.992;14.512;2022-11-15T06:12:58;97976.81;;;3.12;75.06
75039;BME280;63609;49.992;14.512;2022-11-15T06:15:43;97991.59;;;3.97;72.46
75039;BME280;63609;49.992;14.512;2022-11-15T06:18:32;97990.16;;;4.46;70.40
75039;BME280;63609;49.992;14.512;2022-11-15T06:21:17;97989.78;;;4.90;68.86
75039;BME280;63609;49.992;14.512;2022-11-15T06:24:03;97995.28;;;4.99;68.22
75039;BME280;63609;49.992;14.512;2022-11-15T06:26:49;97994.31;;;4.88;68.62
75039;BME280;63609;49.992;14.512;2022-11-15T06:29:34;97993.69;;;4.97;67.83
75039;BME280;63609;49.992;14.512;2022-11-15T06:32:20;97993.50;;;5.00;67.85
75039;BME280;63609;49.992;14.512;2022-11-15T06:35:06;97999.72;;;5.12;67.44
75039;BME280;63609;49.992;14.512;2022-11-15T06:37:51;98004.44;;;4.94;67.75
75039;BME280;63609;49.992;14.512;2022-11-15T06:40:38;97999.28;;;5.18;67.24
75039;BME280;63609;49.992;14.512;2022-11-15T06:43:23;97995.16;;;5.14;67.54
75039;BME280;63609;49.992;14.512;2022-11-15T06:46:09;98000.47;;;5.01;67.68
75039;BME280;63609;49.992;14.512;2022-11-15T06:48:54;97995.19;;;5.01;67.61
75039;BME280;63609;49.992;14.512;2022-11-15T06:51:40;97998.75;;;5.25;66.91
75039;BME280;63609;49.992;14.512;2022-11-15T06:54:25;97999.59;;;5.39;66.60
75039;BME280;63609;49.992;14.512;2022-11-15T06:57:11;97996.13;;;5.00;67.63
75039;BME280;63609;49.992;14.512;2022-11-15T06:59:56;97997.50;;;4.80;68.44
75039;BME280;63609;49.992;14.512;2022-11-15T07:02:42;98003.59;;;4.68;69.11
75039;BME280;63609;49.992;14.512;2022-11-15T07:05:27;97996.31;;;4.84;68.70
75039;BME280;63609;49.992;14.512;2022-11-15T07:08:15;97994.13;;;5.04;67.72
75039;BME280;63609;49.992;14.512;2022-11-15T07:11:03;98005.06;;;4.97;68.12
75039;BME280;63609;49.992;14.512;2022-11-15T07:13:49;98006.13;;;4.82;68.25
75039;BME280;63609;49.992;14.512;2022-11-15T07:16:36;98004.34;;;4.95;67.84
75039;BME280;63609;49.992;14.512;2022-11-15T07:19:21;98010.59;;;4.42;69.34
75039;BME280;63609;49.992;14.512;2022-11-15T07:22:06;98007.53;;;4.35;69.97
75039;BME280;63609;49.992;14.512;2022-11-15T07:24:51;98006.22;;;4.16;70.31
75039;BME280;63609;49.992;14.512;2022-11-15T07:27:37;98008.13;;;3.72;71.45
75039;BME280;63609;49.992;14.512;2022-11-15T07:30:24;97995.94;;;3.57;72.51
75039;BME280;63609;49.992;14.512;2022-11-15T07:33:09;97998.28;;;3.62;72.50
75039;BME280;63609;49.992;14.512;2022-11-15T07:35:58;98002.03;;;3.99;71.58
75039;BME280;63609;49.992;14.512;2022-11-15T07:38:43;98003.81;;;3.98;70.74
75039;BME280;63609;49.992;14.512;2022-11-15T07:41:29;97995.50;;;4.31;71.06
75039;BME280;63609;49.992;14.512;2022-11-15T07:44:15;98002.34;;;4.74;68.68
75039;BME280;63609;49.992;14.512;2022-11-15T07:47:00;97990.53;;;4.79;69.15
75039;BME280;63609;49.992;14.512;2022-11-15T07:49:46;98004.78;;;5.02;68.31
75039;BME280;63609;49.992;14.512;2022-11-15T07:52:31;98002.28;;;4.35;70.36
75039;BME280;63609;49.992;14.512;2022-11-15T07:55:17;98003.91;;;4.24;71.34
75039;BME280;63609;49.992;14.512;2022-11-15T07:58:07;97992.25;;;3.74;72.55
75039;BME280;63609;49.992;14.512;2022-11-15T08:00:53;97992.06;;;3.63;73.25
75039;BME280;63609;49.992;14.512;2022-11-15T08:03:38;97991.44;;;3.86;72.56
75039;BME280;63609;49.992;14.512;2022-11-15T08:06:24;97984.75;;;3.54;72.93
75039;BME280;63609;49.992;14.512;2022-11-15T08:09:09;97990.88;;;3.68;73.20
75039;BME280;63609;49.992;14.512;2022-11-15T08:11:55;97992.34;;;3.72;72.91
75039;BME280;63609;49.992;14.512;2022-11-15T08:14:41;97993.19;;;4.00;72.40
75039;BME280;63609;49.992;14.512;2022-11-15T08:17:27;97986.34;;;3.70;72.54
75039;BME280;63609;49.992;14.512;2022-11-15T08:20:12;97996.00;;;4.24;71.97
75039;BME280;63609;49.992;14.512;2022-11-15T08:23:00;97990.81;;;4.10;71.08
75039;BME280;63609;49.992;14.512;2022-11-15T08:25:45;97986.94;;;4.67;69.13
75039;BME280;63609;49.992;14.512;2022-11-15T08:28:31;97980.94;;;4.78;67.94
75039;BME280;63609;49.992;14.512;2022-11-15T08:31:17;97969.97;;;5.10;67.18
75039;BME280;63609;49.992;14.512;2022-11-15T08:34:04;97974.94;;;4.24;70.07
75039;BME280;63609;49.992;14.512;2022-11-15T08:36:49;97974.59;;;5.19;67.93
75039;BME280;63609;49.992;14.512;2022-11-15T08:39:35;97970.84;;;5.47;67.34
75039;BME280;63609;49.992;14.512;2022-11-15T08:42:20;97953.47;;;5.32;66.98
75039;BME280;63609;49.992;14.512;2022-11-15T08:45:06;97968.22;;;5.47;66.91
75039;BME280;63609;49.992;14.512;2022-11-15T08:47:52;97968.81;;;5.01;67.51
75039;BME280;63609;49.992;14.512;2022-11-15T08:50:38;97977.47;;;5.65;67.19
75039;BME280;63609;49.992;14.512;2022-11-15T08:53:24;97972.63;;;5.96;65.20
75039;BME280;63609;49.992;14.512;2022-11-15T08:56:11;97974.72;;;6.03;65.67
75039;BME280;63609;49.992;14.512;2022-11-15T08:58:57;97969.59;;;6.13;64.97
75039;BME280;63609;49.992;14.512;2022-11-15T09:01:43;97966.66;;;6.05;64.78
75039;BME280;63609;49.992;14.512;2022-11-15T09:04:28;97975.03;;;6.22;65.23
75039;BME280;63609;49.992;14.512;2022-11-15T09:07:14;97972.97;;;6.50;64.12
75039;BME280;63609;49.992;14.512;2022-11-15T09:10:00;97973.34;;;6.57;63.20
75039;BME280;63609;49.992;14.512;2022-11-15T09:12:46;97972.91;;;6.63;63.16
75039;BME280;63609;49.992;14.512;2022-11-15T09:15:34;97967.38;;;6.66;62.52
75039;BME280;63609;49.992;14.512;2022-11-15T09:18:19;97965.22;;;6.71;62.39
75039;BME280;63609;49.992;14.512;2022-11-15T09:21:08;97965.09;;;6.61;62.77
75039;BME280;63609;49.992;14.512;2022-11-15T09:23:53;97965.38;;;6.45;63.39
75039;BME280;63609;49.992;14.512;2022-11-15T09:26:39;97975.63;;;6.26;63.98
75039;BME280;63609;49.992;14.512;2022-11-15T09:29:25;97969.81;;;6.10;64.76
75039;BME280;63609;49.992;14.512;2022-11-15T09:32:10;97976.03;;;6.33;64.00
75039;BME280;63609;49.992;14.512;2022-11-15T09:34:56;97960.44;;;6.41;63.91
75039;BME280;63609;49.992;14.512;2022-11-15T09:37:41;97958.88;;;6.38;64.15
75039;BME280;63609;49.992;14.512;2022-11-15T09:40:27;97963.13;;;5.80;65.96
75039;BME280;63609;49.992;14.512;2022-11-15T09:46:59;97953.16;;;6.20;64.99
75039;BME280;63609;49.992;14.512;2022-11-15T09:49:59;97935.63;;;6.19;64.40
75039;BME280;63609;49.992;14.512;2022-11-15T09:52:34;97948.53;;;6.00;66.03
75039;BME280;63609;49.992;14.512;2022-11-15T09:55:02;97949.38;;;6.36;65.66
75039;BME280;63609;49.992;14.512;2022-11-15T09:57:38;97949.59;;;6.68;63.66
75039;BME280;63609;49.992;14.512;2022-11-15T10:00:15;97942.78;;;6.41;64.76
75039;BME280;63609;49.992;14.512;2022-11-15T10:03:35;97940.47;;;6.72;64.10
75039;BME280;63609;49.992;14.512;2022-11-15T10:06:05;97940.38;;;6.38;65.21
75039;BME280;63609;49.992;14.512;2022-11-15T10:11:37;97941.13;;;5.92;66.60
75039;BME280;63609;49.992;14.512;2022-11-15T10:17:09;97939.78;;;5.87;66.47
75039;BME280;63609;49.992;14.512;2022-11-15T10:20:07;97928.97;;;6.03;66.88
75039;BME280;63609;49.992;14.512;2022-11-15T10:22:41;97925.38;;;6.50;65.33
75039;BME280;63609;49.992;14.512;2022-11-15T10:27:40;97928.13;;;6.37;64.90
75039;BME280;63609;49.992;14.512;2022-11-15T10:30:16;97925.63;;;6.12;65.55
75039;BME280;63609;49.992;14.512;2022-11-15T10:32:45;97919.47;;;5.40;67.43
75039;BME280;63609;49.992;14.512;2022-11-15T10:35:25;97919.06;;;5.93;66.89
75039;BME280;63609;49.992;14.512;2022-11-15T10:38:04;97908.78;;;6.37;65.75
75039;BME280;63609;49.992;14.512;2022-11-15T10:40:32;97898.97;;;6.83;63.80
75039;BME280;63609;49.992;14.512;2022-11-15T10:43:14;97900.66;;;6.73;63.42
75039;BME280;63609;49.992;14.512;2022-11-15T10:45:42;97900.31;;;6.78;63.49
75039;BME280;63609;49.992;14.512;2022-11-15T10:50:44;97898.56;;;6.43;64.45
75039;BME280;63609;49.992;14.512;2022-11-15T10:53:41;97898.47;;;6.56;64.32
75039;BME280;63609;49.992;14.512;2022-11-15T10:56:12;97897.06;;;6.74;64.22
75039;BME280;63609;49.992;14.512;2022-11-15T10:58:42;97892.97;;;6.93;64.06
75039;BME280;63609;49.992;14.512;2022-11-15T11:01:20;97890.34;;;7.04;62.42
75039;BME280;63609;49.992;14.512;2022-11-15T11:04:08;97890.47;;;7.02;63.35
75039;BME280;63609;49.992;14.512;2022-11-15T11:09:40;97881.66;;;7.24;62.52
75039;BME280;63609;49.992;14.512;2022-11-15T11:12:10;97872.66;;;7.27;61.95
75039;BME280;63609;49.992;14.512;2022-11-15T11:14:38;97866.50;;;7.15;62.21
75039;BME280;63609;49.992;14.512;2022-11-15T11:20:32;97866.84;;;7.22;62.76
75039;BME280;63609;49.992;14.512;2022-11-15T11:25:56;97857.63;;;6.71;64.46
75039;BME280;63609;49.992;14.512;2022-11-15T11:36:38;97851.56;;;7.25;62.93
75039;BME280;63609;49.992;14.512;2022-11-15T11:42:19;97840.88;;;7.15;63.55
75039;BME280;63609;49.992;14.512;2022-11-15T11:47:32;97843.03;;;7.33;63.28
75039;BME280;63609;49.992;14.512;2022-11-15T11:50:24;97832.22;;;7.57;61.64
75039;BME280;63609;49.992;14.512;2022-11-15T11:55:51;97812.44;;;7.40;62.54
75039;BME280;63609;49.992;14.512;2022-11-15T11:58:36;97818.75;;;7.28;63.29
75039;BME280;63609;49.992;14.512;2022-11-15T12:01:24;97803.38;;;7.10;64.06
75039;BME280;63609;49.992;14.512;2022-11-15T12:09:38;97799.38;;;7.27;63.29
75039;BME280;63609;49.992;14.512;2022-11-15T12:15:18;97787.16;;;6.93;65.25
75039;BME280;63609;49.992;14.512;2022-11-15T12:17:47;97790.78;;;6.92;64.67
75039;BME280;63609;49.992;14.512;2022-11-15T12:20:20;97780.34;;;7.33;63.82
75039;BME280;63609;49.992;14.512;2022-11-15T12:25:24;97785.97;;;7.40;62.77
75039;BME280;63609;49.992;14.512;2022-11-15T12:30:53;97767.00;;;7.24;63.59
75039;BME280;63609;49.992;14.512;2022-11-15T12:33:42;97762.47;;;7.46;63.10
75039;BME280;63609;49.992;14.512;2022-11-15T12:36:37;97762.16;;;7.40;63.37
75039;BME280;63609;49.992;14.512;2022-11-15T12:39:15;97757.38;;;7.23;63.78
75039;BME280;63609;49.992;14.512;2022-11-15T12:59:57;97739.09;;;7.31;63.28
75039;BME280;63609;49.992;14.512;2022-11-15T13:05:45;97728.91;;;7.47;62.34
75039;BME280;63609;49.992;14.512;2022-11-15T13:07:55;97729.22;;;7.54;62.57
75039;BME280;63609;49.992;14.512;2022-11-15T13:13:06;97726.03;;;6.64;65.24
75039;BME280;63609;49.992;14.512;2022-11-15T13:18:37;97730.06;;;7.22;64.22
75039;BME280;63609;49.992;14.512;2022-11-15T13:21:18;97716.25;;;7.18;64.24
75039;BME280;63609;49.992;14.512;2022-11-15T13:24:05;97723.34;;;7.18;63.95
75039;BME280;63609;49.992;14.512;2022-11-15T13:26:38;97713.59;;;6.86;65.12
75039;BME280;63609;49.992;14.512;2022-11-15T13:29:15;97721.09;;;7.13;64.66
75039;BME280;63609;49.992;14.512;2022-11-15T13:31:43;97724.00;;;7.42;63.57
75039;BME280;63609;49.992;14.512;2022-11-15T13:34:29;97710.69;;;7.54;63.09
75039;BME280;63609;49.992;14.512;2022-11-15T13:39:48;97700.81;;;7.35;63.50
75039;BME280;63609;49.992;14.512;2022-11-15T13:42:20;97697.19;;;7.36;63.43
75039;BME280;63609;49.992;14.512;2022-11-15T13:45:02;97705.56;;;7.20;64.17
75039;BME280;63609;49.992;14.512;2022-11-15T13:47:30;97692.69;;;7.27;63.91
75039;BME280;63609;49.992;14.512;2022-11-15T13:49:59;97696.78;;;7.20;64.26
75039;BME280;63609;49.992;14.512;2022-11-15T13:52:30;97699.94;;;7.13;64.86
75039;BME280;63609;49.992;14.512;2022-11-15T13:55:05;97690.75;;;7.29;64.37
75039;BME280;63609;49.992;14.512;2022-11-15T13:57:53;97687.16;;;7.18;64.26
75039;BME280;63609;49.992;14.512;2022-11-15T14:00:47;97691.72;;;6.30;67.19
75039;BME280;63609;49.992;14.512;2022-11-15T14:03:27;97691.44;;;6.67;66.39
75039;BME280;63609;49.992;14.512;2022-11-15T14:06:13;97688.34;;;6.94;65.25
75039;BME280;63609;49.992;14.512;2022-11-15T14:08:58;97680.16;;;6.97;65.17
75039;BME280;63609;49.992;14.512;2022-11-15T14:11:26;97682.56;;;7.00;65.38
75039;BME280;63609;49.992;14.512;2022-11-15T14:14:12;97678.50;;;7.16;64.26
75039;BME280;63609;49.992;14.512;2022-11-15T14:16:41;97664.47;;;7.37;63.53
75039;BME280;63609;49.992;14.512;2022-11-15T14:19:32;97666.97;;;7.38;63.30
75039;BME280;63609;49.992;14.512;2022-11-15T14:22:18;97661.94;;;7.56;62.60
75039;BME280;63609;49.992;14.512;2022-11-15T14:27:40;97656.19;;;7.51;62.99
75039;BME280;63609;49.992;14.512;2022-11-15T14:30:16;97657.06;;;7.20;64.17
75039;BME280;63609;49.992;14.512;2022-11-15T14:32:46;97656.34;;;7.29;63.92
75039;BME280;63609;49.992;14.512;2022-11-15T14:35:19;97649.53;;;7.15;64.25
75039;BME280;63609;49.992;14.512;2022-11-15T14:37:47;97660.44;;;6.90;65.50
75039;BME280;63609;49.992;14.512;2022-11-15T14:40:18;97658.91;;;6.87;65.53
75039;BME280;63609;49.992;14.512;2022-11-15T14:42:46;97654.56;;;6.97;65.40
75039;BME280;63609;49.992;14.512;2022-11-15T14:45:16;97651.63;;;6.68;66.22
75039;BME280;63609;49.992;14.512;2022-11-15T14:47:43;97654.81;;;6.94;65.55
75039;BME280;63609;49.992;14.512;2022-11-15T14:50:18;97658.88;;;7.19;64.58
75039;BME280;63609;49.992;14.512;2022-11-15T14:52:46;97648.63;;;7.05;65.08
75039;BME280;63609;49.992;14.512;2022-11-15T14:57:45;97630.44;;;7.32;64.37
75039;BME280;63609;49.992;14.512;2022-11-15T15:00:13;97631.06;;;7.25;64.04
75039;BME280;63609;49.992;14.512;2022-11-15T15:02:42;97625.00;;;7.13;65.01
75039;BME280;63609;49.992;14.512;2022-11-15T15:05:29;97620.53;;;7.13;64.95
75039;BME280;63609;49.992;14.512;2022-11-15T15:07:57;97624.47;;;6.98;65.65
75039;BME280;63609;49.992;14.512;2022-11-15T15:10:24;97609.97;;;7.13;64.29
75039;BME280;63609;49.992;14.512;2022-11-15T15:13:15;97621.94;;;7.29;64.29
75039;BME280;63609;49.992;14.512;2022-11-15T15:15:43;97615.84;;;7.17;64.57
75039;BME280;63609;49.992;14.512;2022-11-15T15:18:10;97618.09;;;7.01;64.94
75039;BME280;63609;49.992;14.512;2022-11-15T15:20:39;97628.59;;;6.48;67.20
75039;BME280;63609;49.992;14.512;2022-11-15T15:23:18;97616.69;;;6.97;65.25
75039;BME280;63609;49.992;14.512;2022-11-15T15:25:47;97617.25;;;7.21;64.44
75039;BME280;63609;49.992;14.512;2022-11-15T15:28:15;97616.16;;;7.24;64.30
75039;BME280;63609;49.992;14.512;2022-11-15T15:30:42;97618.31;;;7.30;64.56
75039;BME280;63609;49.992;14.512;2022-11-15T15:33:10;97615.72;;;6.66;66.12
75039;BME280;63609;49.992;14.512;2022-11-15T15:35:37;97614.38;;;6.17;68.32
75039;BME280;63609;49.992;14.512;2022-11-15T15:38:03;97613.31;;;6.08;68.79
75039;BME280;63609;49.992;14.512;2022-11-15T15:40:32;97613.03;;;6.77;66.62
75039;BME280;63609;49.992;14.512;2022-11-15T15:42:59;97611.06;;;7.11;65.23
75039;BME280;63609;49.992;14.512;2022-11-15T15:45:27;97601.91;;;7.36;63.77
75039;BME280;63609;49.992;14.512;2022-11-15T15:47:54;97608.03;;;7.36;63.89
75039;BME280;63609;49.992;14.512;2022-11-15T15:50:27;97603.06;;;7.22;64.10
75039;BME280;63609;49.992;14.512;2022-11-15T15:52:55;97598.09;;;7.29;64.19
75039;BME280;63609;49.992;14.512;2022-11-15T15:55:23;97609.28;;;7.32;63.88
75039;BME280;63609;49.992;14.512;2022-11-15T15:57:50;97608.16;;;7.14;64.65
75039;BME280;63609;49.992;14.512;2022-11-15T16:00:18;97606.28;;;7.05;64.88
75039;BME280;63609;49.992;14.512;2022-11-15T16:02:45;97601.31;;;7.11;64.71
75039;BME280;63609;49.992;14.512;2022-11-15T16:05:12;97609.72;;;7.16;64.76
75039;BME280;63609;49.992;14.512;2022-11-15T16:07:39;97614.53;;;7.11;64.83
75039;BME280;63609;49.992;14.512;2022-11-15T16:10:27;97617.78;;;7.15;64.74
75039;BME280;63609;49.992;14.512;2022-11-15T16:12:55;97619.06;;;7.21;64.77